Time;durP1;ratioP1;P1;durP2;ratioP2;P2;SDS_P1;SDS_P2;PMS_P1;PMS_P2;Temp;Humidity;BMP_temperature;BMP_pressure;BME280_temperature;BME280_humidity;BME280_pressure;Samples;Min_cycle;Max_cycle;Signal;HPM_P1;HPM_P2
2023/07/22 00:00:23;;;;;;;;;;;24.00;62.30;;;;;;8497967;27;20341;-51
2023/07/22 00:04:25;;;;;;;;;;;24.00;62.30;;;;;;8497628;27;20031;-50
2023/07/22 00:08:25;;;;;;;;;;;24.00;62.30;;;;;;8497646;27;19918;-51
2023/07/22 00:12:26;;;;;;;;;;;24.00;62.30;;;;;;8497251;27;20419;-51
2023/07/22 00:16:29;;;;;;;;;;;24.00;62.30;;;;;;8497424;27;19948;-49
2023/07/22 00:20:29;;;;;;;;;;;24.00;62.30;;;;;;8497026;27;19908;-48
2023/07/22 00:24:30;;;;;;;;;;;24.00;62.30;;;;;;8497159;27;20078;-51
2023/07/22 00:28:30;;;;;;;;;;;24.00;62.30;;;;;;8496864;27;19915;-49
2023/07/22 00:32:31;;;;;;;;;;;24.00;62.30;;;;;;8496602;27;19918;-50
2023/07/22 00:36:32;;;;;;;;;;;24.00;62.30;;;;;;8496671;27;20015;-50
2023/07/22 00:40:32;;;;;;;;;;;24.00;62.30;;;;;;8496437;27;19918;-51
2023/07/22 00:44:33;;;;;;;;;;;24.00;62.30;;;;;;8496531;27;19994;-50
2023/07/22 00:48:33;;;;;;;;;;;24.00;62.30;;;;;;8496059;27;20288;-50
2023/07/22 00:52:34;;;;;;;;;;;24.00;62.40;;;;;;8495944;27;19911;-49
2023/07/22 00:56:36;;;;;;;;;;;24.00;62.40;;;;;;8496292;27;20509;-48
2023/07/22 01:00:36;;;;;;;;;;;24.00;62.40;;;;;;8495808;27;19920;-50
2023/07/22 01:04:37;;;;;;;;;;;24.00;62.50;;;;;;8496650;27;20496;-51
2023/07/22 01:08:38;;;;;;;;;;;23.90;62.40;;;;;;8495531;27;19933;-51
2023/07/22 01:12:38;;;;;;;;;;;24.00;62.60;;;;;;8495256;27;19922;-50
2023/07/22 01:16:39;;;;;;;;;;;23.90;62.50;;;;;;8495588;27;19918;-50
2023/07/22 01:20:40;;;;;;;;;;;23.90;62.50;;;;;;8476946;27;20355;-49
2023/07/22 01:24:41;;;;;;;;;;;23.90;62.40;;;;;;8511597;27;19911;-48
2023/07/22 01:28:42;;;;;;;;;;;23.90;62.40;;;;;;8495264;27;19922;-50
2023/07/22 01:32:43;;;;;;;;;;;24.00;62.50;;;;;;8494920;27;19908;-50
2023/07/22 01:36:47;;;;;;;;;;;23.90;62.50;;;;;;8494288;27;19959;-51
2023/07/22 01:40:48;;;;;;;;;;;23.90;62.50;;;;;;8476757;28;19994;-50
2023/07/22 01:44:48;;;;;;;;;;;24.00;63.30;;;;;;8476360;28;19911;-49
2023/07/22 01:48:49;;;;;;;;;;;23.90;62.40;;;;;;8494702;28;20005;-49
2023/07/22 01:52:50;;;;;;;;;;;24.00;62.50;;;;;;8494548;28;19951;-50
2023/07/22 01:56:50;;;;;;;;;;;23.90;62.50;;;;;;8495056;27;19915;-51
2023/07/22 02:00:51;;;;;;;;;;;23.90;62.40;;;;;;8494571;28;19912;-51
2023/07/22 02:04:51;;;;;;;;;;;23.90;62.40;;;;;;8494545;28;20377;-49
2023/07/22 02:08:52;;;;;;;;;;;23.90;62.40;;;;;;8494272;28;19912;-50
2023/07/22 02:12:52;;;;;;;;;;;23.90;62.30;;;;;;8494429;28;19924;-50
2023/07/22 02:16:53;;;;;;;;;;;23.90;62.40;;;;;;8494239;28;20014;-51
2023/07/22 02:20:54;;;;;;;;;;;24.00;62.40;;;;;;8494192;28;19911;-52
2023/07/22 02:24:54;;;;;;;;;;;23.90;62.40;;;;;;8494669;27;19908;-51
2023/07/22 02:28:55;;;;;;;;;;;23.90;62.50;;;;;;8476376;28;19963;-48
2023/07/22 02:32:56;;;;;;;;;;;23.90;62.40;;;;;;8475758;28;19912;-51
2023/07/22 02:36:56;;;;;;;;;;;23.90;62.40;;;;;;8493983;28;19940;-50
2023/07/22 02:41:06;;;;;;;;;;;24.00;62.50;;;;;;8494050;28;20376;-51
2023/07/22 02:45:07;;;;;;;;;;;23.90;62.40;;;;;;8494957;27;19914;-50
2023/07/22 02:49:08;;;;;;;;;;;23.90;62.40;;;;;;8500306;27;19964;-50
2023/07/22 02:53:08;;;;;;;;;;;23.90;62.40;;;;;;8499765;27;20441;-51
2023/07/22 02:57:09;;;;;;;;;;;23.90;62.50;;;;;;8482264;27;19919;-49
2023/07/22 03:01:10;;;;;;;;;;;23.90;62.40;;;;;;8499797;27;19960;-50
2023/07/22 03:05:10;;;;;;;;;;;23.90;62.50;;;;;;8499683;27;19918;-48
2023/07/22 03:09:11;;;;;;;;;;;23.90;62.50;;;;;;8499448;27;19907;-47
2023/07/22 03:13:11;;;;;;;;;;;23.90;62.50;;;;;;8499141;27;20304;-48
2023/07/22 03:17:15;;;;;;;;;;;23.90;62.50;;;;;;8481374;27;20080;-51
2023/07/22 03:21:16;;;;;;;;;;;23.90;62.60;;;;;;8498763;27;19919;-49
2023/07/22 03:25:17;;;;;;;;;;;23.90;62.60;;;;;;8499287;27;19959;-51
2023/07/22 03:29:17;;;;;;;;;;;23.90;62.90;;;;;;8480468;27;20409;-51
2023/07/22 03:33:18;;;;;;;;;;;23.90;62.50;;;;;;8499526;27;19919;-50
2023/07/22 03:37:20;;;;;;;;;;;23.90;63.30;;;;;;8498123;27;19915;-51
2023/07/22 03:41:20;;;;;;;;;;;23.90;62.50;;;;;;8498793;27;19950;-50
2023/07/22 03:45:21;;;;;;;;;;;23.90;62.50;;;;;;8498650;27;19912;-50
2023/07/22 03:49:22;;;;;;;;;;;23.90;62.50;;;;;;8498241;27;20167;-51
2023/07/22 03:53:22;;;;;;;;;;;23.90;62.50;;;;;;8497648;27;20427;-50
2023/07/22 03:57:26;;;;;;;;;;;23.90;62.50;;;;;;8497321;27;19916;-51
2023/07/22 04:01:27;;;;;;;;;;;23.90;62.50;;;;;;8498077;27;19996;-50
2023/07/22 04:05:28;;;;;;;;;;;23.90;62.50;;;;;;8497424;27;19919;-49
2023/07/22 04:09:28;;;;;;;;;;;23.90;62.50;;;;;;8497648;27;19911;-51
2023/07/22 04:13:29;;;;;;;;;;;23.90;62.50;;;;;;8496119;27;20308;-49
2023/07/22 04:17:29;;;;;;;;;;;23.90;62.40;;;;;;8497291;27;19912;-48
2023/07/22 04:21:30;;;;;;;;;;;23.90;62.50;;;;;;8497099;27;19920;-47
2023/07/22 04:25:30;;;;;;;;;;;23.90;62.40;;;;;;8497594;27;19912;-47
2023/07/22 04:29:31;;;;;;;;;;;23.90;62.50;;;;;;8496799;27;19918;-47
2023/07/22 04:33:31;;;;;;;;;;;23.90;62.50;;;;;;8513337;27;19917;-47
2023/07/22 04:37:32;;;;;;;;;;;23.90;62.50;;;;;;8497230;27;19966;-48
2023/07/22 04:41:32;;;;;;;;;;;23.90;62.50;;;;;;8496617;27;19915;-51
2023/07/22 04:45:34;;;;;;;;;;;23.90;62.50;;;;;;8497126;27;19918;-48
2023/07/22 04:49:34;;;;;;;;;;;23.90;62.60;;;;;;8496240;27;19934;-50
2023/07/22 04:53:35;;;;;;;;;;;23.90;62.60;;;;;;8496863;27;19956;-49
2023/07/22 04:57:36;;;;;;;;;;;23.90;62.60;;;;;;8496205;27;19916;-48
2023/07/22 05:01:37;;;;;;;;;;;23.90;62.60;;;;;;8495976;27;19914;-49
2023/07/22 05:05:37;;;;;;;;;;;23.80;62.60;;;;;;8477722;27;19912;-49
2023/07/22 05:09:38;;;;;;;;;;;23.80;62.60;;;;;;8494908;27;19938;-47
2023/07/22 05:13:38;;;;;;;;;;;23.90;62.60;;;;;;8495825;27;19923;-50
2023/07/22 05:17:39;;;;;;;;;;;23.80;62.60;;;;;;8495796;27;20438;-50
2023/07/22 05:21:39;;;;;;;;;;;23.80;62.50;;;;;;8496362;27;19949;-50
2023/07/22 05:25:40;;;;;;;;;;;23.80;62.50;;;;;;8495304;27;19911;-50
2023/07/22 05:29:40;;;;;;;;;;;23.80;62.50;;;;;;8495368;27;20010;-50
2023/07/22 05:33:41;;;;;;;;;;;23.80;62.50;;;;;;8495104;27;19912;-49
2023/07/22 05:37:41;;;;;;;;;;;23.80;62.60;;;;;;8476640;27;19916;-50
2023/07/22 05:41:42;;;;;;;;;;;23.80;62.60;;;;;;8494838;27;19915;-49
2023/07/22 05:45:42;;;;;;;;;;;23.80;62.50;;;;;;8494969;27;19941;-50
2023/07/22 05:49:43;;;;;;;;;;;23.80;62.60;;;;;;8476341;28;19950;-49
2023/07/22 05:53:43;;;;;;;;;;;23.80;62.60;;;;;;8494823;28;19919;-48
2023/07/22 05:57:44;;;;;;;;;;;23.90;62.60;;;;;;8494754;27;19958;-51
2023/07/22 06:01:44;;;;;;;;;;;23.90;62.60;;;;;;8495043;28;19916;-51
2023/07/22 06:05:45;;;;;;;;;;;23.80;62.50;;;;;;8494423;28;19915;-51
2023/07/22 06:09:46;;;;;;;;;;;23.90;62.60;;;;;;8494260;28;19911;-49
2023/07/22 06:13:46;;;;;;;;;;;23.80;62.50;;;;;;8476173;28;19938;-51
2023/07/22 06:17:47;;;;;;;;;;;23.80;62.60;;;;;;8494232;28;19915;-50
2023/07/22 06:21:47;;;;;;;;;;;23.80;62.60;;;;;;8499154;27;19960;-48
2023/07/22 06:25:48;;;;;;;;;;;23.80;62.50;;;;;;8501712;27;20003;-48
2023/07/22 06:29:48;;;;;;;;;;;23.80;62.60;;;;;;8500682;27;19953;-51
2023/07/22 06:33:49;;;;;;;;;;;23.80;62.60;;;;;;8500657;27;19934;-51
2023/07/22 06:37:49;;;;;;;;;;;23.80;62.60;;;;;;8500530;27;19919;-50
2023/07/22 06:41:50;;;;;;;;;;;23.80;62.60;;;;;;8500368;27;19908;-51
2023/07/22 06:45:50;;;;;;;;;;;23.80;62.60;;;;;;8500692;27;19912;-51
2023/07/22 06:49:51;;;;;;;;;;;23.80;62.50;;;;;;8481681;27;19911;-50
2023/07/22 06:53:51;;;;;;;;;;;23.80;62.60;;;;;;8500246;27;20375;-50
2023/07/22 06:57:55;;;;;;;;;;;23.80;62.60;;;;;;8500301;27;19958;-49
2023/07/22 07:01:55;;;;;;;;;;;23.80;62.60;;;;;;8499555;27;19943;-49
2023/07/22 07:05:56;;;;;;;;;;;23.80;62.60;;;;;;8499504;27;19912;-48
2023/07/22 07:09:57;;;;;;;;;;;23.80;62.60;;;;;;8499404;27;19907;-51
2023/07/22 07:13:57;;;;;;;;;;;23.80;62.50;;;;;;8499507;27;20364;-50
2023/07/22 07:17:58;;;;;;;;;;;23.80;62.50;;;;;;8499060;27;19911;-51
2023/07/22 07:21:58;;;;;;;;;;;23.80;62.60;;;;;;8500063;27;19960;-49
2023/07/22 07:25:59;;;;;;;;;;;23.80;62.60;;;;;;8499357;27;19912;-50
2023/07/22 07:29:59;;;;;;;;;;;23.80;62.60;;;;;;8499309;27;19913;-51
2023/07/22 07:34:01;;;;;;;;;;;23.80;62.50;;;;;;8497890;27;19911;-51
2023/07/22 07:38:01;;;;;;;;;;;23.80;62.50;;;;;;8498271;27;19912;-50
2023/07/22 07:42:02;;;;;;;;;;;23.80;62.60;;;;;;8498731;27;19912;-50
2023/07/22 07:46:22;;;;;;;;;;;23.80;62.50;;;;;;8498735;27;19915;-51
2023/07/22 07:50:22;;;;;;;;;;;23.80;62.50;;;;;;8498007;27;20265;-51
2023/07/22 07:54:23;;;;;;;;;;;23.80;62.60;;;;;;8498048;27;20009;-50
2023/07/22 07:58:23;;;;;;;;;;;23.80;62.50;;;;;;8497968;27;19911;-50
2023/07/22 08:02:24;;;;;;;;;;;23.80;62.60;;;;;;8498099;27;19912;-50
2023/07/22 08:06:24;;;;;;;;;;;23.80;62.50;;;;;;8497781;27;20428;-50
2023/07/22 08:10:25;;;;;;;;;;;23.80;62.50;;;;;;8479137;27;20373;-51
2023/07/22 08:14:25;;;;;;;;;;;23.80;62.60;;;;;;8497606;27;20283;-51
2023/07/22 08:18:26;;;;;;;;;;;23.80;62.50;;;;;;8497327;27;20287;-50
2023/07/22 08:22:27;;;;;;;;;;;23.80;62.60;;;;;;8497331;27;19911;-51
2023/07/22 08:26:28;;;;;;;;;;;23.80;62.50;;;;;;8497359;27;20382;-49
2023/07/22 08:30:28;;;;;;;;;;;23.90;62.60;;;;;;8496628;27;19919;-53
2023/07/22 08:34:29;;;;;;;;;;;23.80;62.60;;;;;;8497072;27;19962;-51
2023/07/22 08:38:29;;;;;;;;;;;23.80;62.60;;;;;;8477875;27;19915;-50
2023/07/22 08:42:31;;;;;;;;;;;23.80;62.50;;;;;;8478066;27;20384;-49
2023/07/22 08:46:33;;;;;;;;;;;23.80;62.60;;;;;;8477962;27;19907;-51
2023/07/22 08:50:36;;;;;;;;;;;23.80;62.60;;;;;;8495940;27;20006;-48
2023/07/22 08:54:37;;;;;;;;;;;23.80;62.60;;;;;;8479208;27;19915;-50
2023/07/22 08:58:38;;;;;;;;;;;23.80;62.60;;;;;;8495825;27;19915;-50
2023/07/22 09:02:40;;;;;;;;;;;23.80;62.50;;;;;;8495971;27;19908;-51
2023/07/22 09:06:41;;;;;;;;;;;23.80;62.50;;;;;;8494538;27;20594;-49
2023/07/22 09:10:42;;;;;;;;;;;23.80;62.60;;;;;;8496244;27;19915;-51
2023/07/22 09:14:43;;;;;;;;;;;23.80;62.60;;;;;;8495531;27;19927;-51
2023/07/22 09:18:44;;;;;;;;;;;23.80;62.60;;;;;;8495755;27;19946;-50
2023/07/22 09:22:45;;;;;;;;;;;23.80;62.50;;;;;;8476870;27;19916;-51
2023/07/22 09:26:46;;;;;;;;;;;23.80;62.50;;;;;;8495353;27;19959;-51
2023/07/22 09:30:46;;;;;;;;;;;23.80;62.60;;;;;;8495233;27;19911;-49
2023/07/22 09:34:55;;;;;;;;;;;23.80;62.50;;;;;;8494757;27;19919;-50
2023/07/22 09:39:02;;;;;;;;;;;23.80;62.50;;;;;;8495109;27;19912;-48
2023/07/22 09:43:03;;;;;;;;;;;23.80;62.50;;;;;;8495089;27;19916;-49
2023/07/22 09:47:08;;;;;;;;;;;23.80;62.50;;;;;;8495105;27;20376;-51
2023/07/22 09:51:13;;;;;;;;;;;23.80;62.50;;;;;;8494620;28;20357;-51
2023/07/22 09:55:20;;;;;;;;;;;23.80;62.50;;;;;;8496490;27;19922;-50
2023/07/22 09:59:22;;;;;;;;;;;23.80;62.50;;;;;;8501941;27;19915;-49
2023/07/22 10:03:24;;;;;;;;;;;23.80;62.50;;;;;;8501616;27;19911;-50
2023/07/22 10:07:24;;;;;;;;;;;23.80;62.50;;;;;;8501591;27;19961;-49
2023/07/22 10:11:26;;;;;;;;;;;23.80;62.50;;;;;;8501320;27;20423;-51
2023/07/22 10:15:34;;;;;;;;;;;23.80;63.30;;;;;;8501411;27;19919;-48
2023/07/22 10:19:34;;;;;;;;;;;23.80;62.50;;;;;;8482853;27;19908;-51
2023/07/22 10:23:36;;;;;;;;;;;23.80;62.40;;;;;;8500803;27;19915;-50
2023/07/22 10:27:39;;;;;;;;;;;23.80;62.40;;;;;;8501173;27;20391;-50
2023/07/22 10:31:39;;;;;;;;;;;23.80;62.50;;;;;;8500853;27;19912;-49
2023/07/22 10:35:44;;;;;;;;;;;23.80;62.40;;;;;;8500795;27;19922;-50
2023/07/22 10:39:45;;;;;;;;;;;23.80;62.30;;;;;;8500458;27;19912;-51
2023/07/22 10:43:56;;;;;;;;;;;23.80;62.30;;;;;;8500306;27;19951;-48
2023/07/22 10:48:00;;;;;;;;;;;23.80;62.30;;;;;;8500412;27;19994;-49
2023/07/22 10:52:01;;;;;;;;;;;23.80;62.30;;;;;;8500294;27;20334;-47
2023/07/22 10:56:04;;;;;;;;;;;23.80;62.30;;;;;;8500242;27;20030;-50
2023/07/22 11:00:17;;;;;;;;;;;23.80;62.30;;;;;;8499933;27;20287;-51
2023/07/22 11:04:18;;;;;;;;;;;23.80;62.40;;;;;;8499965;27;20010;-49
2023/07/22 11:08:37;;;;;;;;;;;23.80;62.30;;;;;;8499271;27;19908;-50
2023/07/22 11:12:38;;;;;;;;;;;23.90;62.30;;;;;;8499475;27;19915;-51
2023/07/22 11:16:39;;;;;;;;;;;23.90;63.00;;;;;;8480877;27;20400;-50
2023/07/22 11:20:39;;;;;;;;;;;23.80;62.20;;;;;;8499300;27;19911;-49
2023/07/22 11:24:40;;;;;;;;;;;23.80;62.30;;;;;;8499316;27;19919;-49
2023/07/22 11:28:41;;;;;;;;;;;23.80;62.30;;;;;;8498780;27;19918;-48
2023/07/22 11:32:42;;;;;;;;;;;23.80;62.20;;;;;;8499804;27;19956;-51
2023/07/22 11:36:43;;;;;;;;;;;23.80;62.30;;;;;;8498399;27;20131;-51
2023/07/22 11:40:45;;;;;;;;;;;23.80;62.20;;;;;;8498892;27;20347;-50
2023/07/22 11:44:46;;;;;;;;;;;23.80;62.30;;;;;;8498315;27;19939;-50
2023/07/22 11:48:50;;;;;;;;;;;23.80;62.30;;;;;;8498373;27;19953;-49
2023/07/22 11:52:51;;;;;;;;;;;23.80;62.30;;;;;;8498085;27;19912;-50
2023/07/22 11:56:52;;;;;;;;;;;23.80;62.20;;;;;;8498151;27;19962;-50
2023/07/22 12:01:02;;;;;;;;;;;23.80;62.20;;;;;;8497721;27;19914;-51
2023/07/22 12:05:05;;;;;;;;;;;23.90;62.30;;;;;;8497717;27;20014;-48
2023/07/22 12:09:06;;;;;;;;;;;23.90;62.20;;;;;;8497738;27;19947;-49
2023/07/22 12:13:07;;;;;;;;;;;23.90;62.20;;;;;;8497143;27;19919;-51
2023/07/22 12:17:09;;;;;;;;;;;23.80;62.10;;;;;;8497370;27;19923;-48
2023/07/22 12:21:10;;;;;;;;;;;23.90;62.10;;;;;;8497343;27;19914;-50
2023/07/22 12:25:10;;;;;;;;;;;23.90;62.20;;;;;;8497978;27;19912;-47
2023/07/22 12:29:11;;;;;;;;;;;23.90;62.20;;;;;;8497224;27;20310;-48
2023/07/22 12:33:12;;;;;;;;;;;23.90;62.10;;;;;;8497591;27;19918;-51
2023/07/22 12:37:12;;;;;;;;;;;23.90;62.10;;;;;;8497254;27;20497;-48
2023/07/22 12:41:13;;;;;;;;;;;23.90;62.10;;;;;;8497074;27;19916;-50
2023/07/22 12:45:13;;;;;;;;;;;23.90;62.10;;;;;;8497436;27;19978;-49
2023/07/22 12:49:14;;;;;;;;;;;23.90;62.00;;;;;;8496875;27;19950;-48
2023/07/22 12:53:14;;;;;;;;;;;23.90;62.10;;;;;;8512926;27;20369;-48
2023/07/22 12:57:15;;;;;;;;;;;23.90;62.10;;;;;;8496302;27;19915;-49
2023/07/22 13:01:16;;;;;;;;;;;23.90;62.00;;;;;;8495874;27;19916;-49
2023/07/22 13:05:16;;;;;;;;;;;23.90;62.10;;;;;;8495673;27;19912;-48
2023/07/22 13:09:18;;;;;;;;;;;23.90;62.20;;;;;;8495462;27;19918;-49
2023/07/22 13:13:19;;;;;;;;;;;23.90;62.20;;;;;;8495416;27;19978;-49
2023/07/22 13:17:19;;;;;;;;;;;23.90;62.10;;;;;;8495463;27;19915;-49
2023/07/22 13:21:20;;;;;;;;;;;23.90;61.90;;;;;;8495277;27;19944;-48
2023/07/22 13:25:21;;;;;;;;;;;23.90;62.00;;;;;;8495411;27;19911;-50
2023/07/22 13:29:21;;;;;;;;;;;23.90;61.90;;;;;;8494931;27;19912;-48
2023/07/22 13:33:22;;;;;;;;;;;23.90;62.00;;;;;;8494929;27;19915;-48
2023/07/22 13:37:22;;;;;;;;;;;23.90;61.90;;;;;;8495099;27;19962;-49
2023/07/22 13:41:23;;;;;;;;;;;23.90;61.90;;;;;;8494732;27;19919;-50
2023/07/22 13:45:23;;;;;;;;;;;23.90;61.90;;;;;;8495080;27;20301;-47
2023/07/22 13:49:24;;;;;;;;;;;23.90;61.90;;;;;;8494828;27;19912;-50
2023/07/22 13:53:24;;;;;;;;;;;23.90;62.00;;;;;;8494647;28;19967;-48
2023/07/22 13:57:25;;;;;;;;;;;23.90;61.90;;;;;;8494934;27;19955;-51
2023/07/22 14:01:25;;;;;;;;;;;23.90;61.80;;;;;;8495073;28;19918;-49
2023/07/22 14:05:26;;;;;;;;;;;24.00;61.90;;;;;;8494613;28;20402;-50
2023/07/22 14:09:26;;;;;;;;;;;23.90;61.80;;;;;;8494194;28;20438;-51
2023/07/22 14:13:27;;;;;;;;;;;23.90;61.80;;;;;;8494504;28;19923;-50
2023/07/22 14:17:27;;;;;;;;;;;23.90;61.80;;;;;;8492956;28;20463;-49
2023/07/22 14:21:28;;;;;;;;;;;24.00;61.90;;;;;;8494272;28;20338;-50
2023/07/22 14:25:28;;;;;;;;;;;23.90;61.80;;;;;;8494544;27;19911;-48
2023/07/22 14:29:29;;;;;;;;;;;23.90;61.80;;;;;;8494674;28;19912;-51
2023/07/22 14:33:29;;;;;;;;;;;23.90;61.80;;;;;;8494231;28;19912;-49
2023/07/22 14:37:30;;;;;;;;;;;24.00;61.80;;;;;;8494591;28;20011;-50
2023/07/22 14:41:31;;;;;;;;;;;24.00;61.90;;;;;;8495784;27;20101;-51
2023/07/22 14:45:31;;;;;;;;;;;23.90;61.80;;;;;;8465391;27;19918;-49
2023/07/22 14:49:32;;;;;;;;;;;23.90;61.70;;;;;;8500339;27;20450;-51
2023/07/22 14:53:32;;;;;;;;;;;23.90;61.70;;;;;;8500577;27;20363;-51
2023/07/22 14:57:33;;;;;;;;;;;24.00;61.80;;;;;;8500251;27;19920;-50
2023/07/22 15:01:37;;;;;;;;;;;24.00;61.80;;;;;;8500471;27;19957;-50
2023/07/22 15:05:38;;;;;;;;;;;23.90;61.60;;;;;;8499731;27;19933;-51
2023/07/22 15:09:38;;;;;;;;;;;24.00;61.80;;;;;;8499696;27;19962;-50
2023/07/22 15:13:39;;;;;;;;;;;24.00;61.70;;;;;;8499417;27;19949;-49
2023/07/22 15:17:39;;;;;;;;;;;24.00;61.80;;;;;;8499147;27;20011;-50
2023/07/22 15:21:40;;;;;;;;;;;24.00;61.70;;;;;;8499735;27;19918;-50
2023/07/22 15:25:40;;;;;;;;;;;24.00;61.70;;;;;;8499545;27;19919;-50
2023/07/22 15:29:41;;;;;;;;;;;24.00;61.70;;;;;;8498896;27;20382;-48
2023/07/22 15:33:41;;;;;;;;;;;24.00;61.80;;;;;;8499604;27;19912;-51
2023/07/22 15:37:42;;;;;;;;;;;24.00;61.80;;;;;;8499009;27;19969;-51
2023/07/22 15:41:42;;;;;;;;;;;24.00;61.80;;;;;;8498748;27;19912;-49
2023/07/22 15:45:43;;;;;;;;;;;24.00;61.80;;;;;;8499574;27;20357;-48
2023/07/22 15:49:43;;;;;;;;;;;24.00;61.80;;;;;;8498198;27;19915;-51
2023/07/22 15:53:44;;;;;;;;;;;24.00;61.80;;;;;;8497855;27;20021;-49
2023/07/22 15:57:48;;;;;;;;;;;24.00;61.70;;;;;;8480154;27;19911;-49
2023/07/22 16:01:48;;;;;;;;;;;24.00;61.70;;;;;;8498250;27;19947;-48
2023/07/22 16:05:49;;;;;;;;;;;24.00;61.70;;;;;;8497930;27;20035;-51
2023/07/22 16:09:49;;;;;;;;;;;24.00;61.70;;;;;;8497724;27;19912;-49
2023/07/22 16:13:50;;;;;;;;;;;24.00;61.70;;;;;;8497165;27;20470;-48
2023/07/22 16:17:50;;;;;;;;;;;24.00;61.70;;;;;;8497664;27;20326;-50
2023/07/22 16:21:51;;;;;;;;;;;24.00;61.60;;;;;;8497524;27;19907;-49
2023/07/22 16:25:51;;;;;;;;;;;24.00;61.70;;;;;;8497550;27;19911;-51
2023/07/22 16:29:52;;;;;;;;;;;24.00;61.60;;;;;;8496956;27;19911;-50
2023/07/22 16:33:52;;;;;;;;;;;24.00;61.60;;;;;;8478859;27;19918;-49
2023/07/22 16:37:53;;;;;;;;;;;24.00;61.60;;;;;;8496630;27;19919;-50
2023/07/22 16:41:54;;;;;;;;;;;24.00;61.60;;;;;;8497528;27;20011;-49
2023/07/22 16:45:55;;;;;;;;;;;24.00;61.60;;;;;;8496241;27;20007;-51
2023/07/22 16:49:55;;;;;;;;;;;24.00;61.60;;;;;;8478162;27;19912;-51
2023/07/22 16:53:56;;;;;;;;;;;24.00;61.60;;;;;;8496373;27;20403;-51
2023/07/22 16:57:56;;;;;;;;;;;24.00;61.70;;;;;;8496297;27;19968;-50
2023/07/22 17:01:57;;;;;;;;;;;24.00;61.70;;;;;;8496128;27;19919;-51
2023/07/22 17:05:57;;;;;;;;;;;24.00;61.60;;;;;;8512133;27;19918;-51
2023/07/22 17:09:58;;;;;;;;;;;24.00;61.60;;;;;;8495710;27;19918;-48
2023/07/22 17:13:58;;;;;;;;;;;24.00;61.70;;;;;;8495457;27;20360;-50
2023/07/22 17:17:59;;;;;;;;;;;24.00;61.60;;;;;;8495530;27;19916;-50
2023/07/22 17:21:59;;;;;;;;;;;24.00;61.60;;;;;;8495506;27;19921;-51
2023/07/22 17:26:00;;;;;;;;;;;24.00;61.60;;;;;;8495898;27;19914;-51
2023/07/22 17:30:00;;;;;;;;;;;24.00;61.60;;;;;;8476952;27;19959;-50
2023/07/22 17:34:01;;;;;;;;;;;24.00;61.60;;;;;;8476860;27;19911;-50
2023/07/22 17:38:02;;;;;;;;;;;24.00;61.60;;;;;;8495317;27;19952;-51
2023/07/22 17:42:02;;;;;;;;;;;24.00;61.60;;;;;;8495003;27;19971;-51
2023/07/22 17:46:04;;;;;;;;;;;24.00;61.60;;;;;;8476706;27;19915;-50
2023/07/22 17:50:05;;;;;;;;;;;24.00;61.60;;;;;;8494672;27;20413;-50
2023/07/22 17:54:05;;;;;;;;;;;24.00;61.60;;;;;;8494779;28;20284;-51
2023/07/22 17:58:06;;;;;;;;;;;24.00;61.60;;;;;;8476383;28;20329;-51
2023/07/22 18:02:06;;;;;;;;;;;24.00;61.60;;;;;;8495271;28;20006;-51
2023/07/22 18:06:07;;;;;;;;;;;24.00;61.70;;;;;;8494362;28;19934;-50
2023/07/22 18:10:08;;;;;;;;;;;24.00;61.70;;;;;;8494695;28;20386;-50
2023/07/22 18:14:08;;;;;;;;;;;23.90;61.60;;;;;;8494466;28;19923;-50
2023/07/22 18:18:10;;;;;;;;;;;24.00;61.70;;;;;;8480683;27;19915;-50
2023/07/22 18:22:10;;;;;;;;;;;24.00;61.70;;;;;;8501065;27;19963;-48
2023/07/22 18:26:11;;;;;;;;;;;24.00;61.60;;;;;;8482773;27;19911;-50
2023/07/22 18:30:12;;;;;;;;;;;23.90;61.60;;;;;;8501164;27;19916;-48
2023/07/22 18:34:12;;;;;;;;;;;24.00;61.70;;;;;;8500646;27;19911;-50
2023/07/22 18:38:13;;;;;;;;;;;24.00;61.60;;;;;;8500451;27;19922;-48
2023/07/22 18:42:13;;;;;;;;;;;24.00;61.60;;;;;;8500407;27;19920;-51
2023/07/22 18:46:20;;;;;;;;;;;24.00;61.60;;;;;;8500504;27;20384;-50
2023/07/22 18:50:21;;;;;;;;;;;24.00;61.60;;;;;;8499912;27;19908;-50
2023/07/22 18:54:21;;;;;;;;;;;24.00;61.60;;;;;;8500633;27;19912;-50
2023/07/22 18:58:22;;;;;;;;;;;24.00;61.60;;;;;;8500191;27;19922;-51
2023/07/22 19:02:22;;;;;;;;;;;24.00;61.60;;;;;;8499856;27;19960;-49
2023/07/22 19:06:23;;;;;;;;;;;24.00;61.60;;;;;;8499804;27;20006;-51
2023/07/22 19:10:23;;;;;;;;;;;24.00;61.60;;;;;;8499461;27;19916;-49
2023/07/22 19:14:24;;;;;;;;;;;24.00;61.70;;;;;;8499160;27;19953;-49
2023/07/22 19:18:24;;;;;;;;;;;24.00;61.70;;;;;;8499268;27;19916;-50
2023/07/22 19:22:25;;;;;;;;;;;24.00;61.60;;;;;;8499183;27;19916;-51
2023/07/22 19:26:25;;;;;;;;;;;24.00;61.70;;;;;;8499289;27;20278;-50
2023/07/22 19:30:26;;;;;;;;;;;24.00;61.70;;;;;;8497583;27;20273;-51
2023/07/22 19:34:26;;;;;;;;;;;24.00;61.70;;;;;;8499001;27;19911;-50
2023/07/22 19:38:27;;;;;;;;;;;24.00;61.70;;;;;;8499105;27;19915;-49
2023/07/22 19:42:27;;;;;;;;;;;24.00;61.70;;;;;;8498713;27;19911;-50
2023/07/22 19:46:28;;;;;;;;;;;24.00;61.60;;;;;;8498779;27;19951;-49
2023/07/22 19:50:29;;;;;;;;;;;24.00;61.70;;;;;;8498117;27;20022;-50
2023/07/22 19:54:29;;;;;;;;;;;24.00;61.70;;;;;;8499024;27;20365;-48
2023/07/22 19:58:30;;;;;;;;;;;24.00;61.70;;;;;;8498189;27;19922;-49
2023/07/22 20:02:30;;;;;;;;;;;23.90;61.60;;;;;;8497759;27;20387;-49
2023/07/22 20:06:31;;;;;;;;;;;24.00;61.60;;;;;;8497974;27;19919;-50
2023/07/22 20:10:31;;;;;;;;;;;24.00;61.70;;;;;;8497622;27;20414;-49
2023/07/22 20:14:32;;;;;;;;;;;24.00;61.70;;;;;;8497448;27;19924;-49
2023/07/22 20:18:32;;;;;;;;;;;24.00;61.60;;;;;;8497158;27;20352;-47
2023/07/22 20:22:33;;;;;;;;;;;24.00;61.70;;;;;;8497221;27;19919;-48
2023/07/22 20:26:33;;;;;;;;;;;24.00;61.70;;;;;;8479021;27;19916;-47
2023/07/22 20:30:34;;;;;;;;;;;24.00;61.70;;;;;;8497423;27;19937;-48
2023/07/22 20:34:35;;;;;;;;;;;23.90;61.60;;;;;;8497267;27;20388;-50
2023/07/22 20:38:36;;;;;;;;;;;24.00;61.70;;;;;;8497281;27;20253;-47
2023/07/22 20:42:37;;;;;;;;;;;24.00;61.80;;;;;;8497081;27;20296;-48
2023/07/22 20:46:38;;;;;;;;;;;23.90;61.70;;;;;;8497215;27;19946;-49
2023/07/22 20:50:39;;;;;;;;;;;24.00;61.80;;;;;;8513339;27;19912;-51
2023/07/22 20:54:40;;;;;;;;;;;23.90;61.60;;;;;;8496993;27;19911;-48
2023/07/22 20:58:40;;;;;;;;;;;24.00;61.70;;;;;;8496361;27;19919;-51
2023/07/22 21:02:41;;;;;;;;;;;23.90;61.60;;;;;;8496155;27;19908;-49
2023/07/22 21:06:41;;;;;;;;;;;24.00;61.70;;;;;;8495901;27;20234;-50
2023/07/22 21:10:42;;;;;;;;;;;23.90;61.60;;;;;;8495896;27;19968;-50
2023/07/22 21:14:42;;;;;;;;;;;24.00;61.70;;;;;;8495724;27;19923;-49
2023/07/22 21:18:43;;;;;;;;;;;24.00;61.60;;;;;;8476943;27;19923;-49
2023/07/22 21:22:43;;;;;;;;;;;23.90;61.60;;;;;;8495494;27;20303;-50
2023/07/22 21:26:46;;;;;;;;;;;23.90;61.60;;;;;;8494880;27;21544;-49
2023/07/22 21:30:46;;;;;;;;;;;23.90;61.60;;;;;;8494999;27;20005;-51
2023/07/22 21:34:47;;;;;;;;;;;23.90;61.60;;;;;;8495460;27;19966;-51
2023/07/22 21:38:47;;;;;;;;;;;23.90;61.60;;;;;;8495047;27;20010;-50
2023/07/22 21:42:48;;;;;;;;;;;23.90;61.60;;;;;;8495049;27;19915;-50
2023/07/22 21:46:49;;;;;;;;;;;23.90;61.60;;;;;;8495070;27;19907;-51
2023/07/22 21:50:49;;;;;;;;;;;23.90;61.60;;;;;;8510075;27;20464;-51
2023/07/22 21:54:50;;;;;;;;;;;23.90;61.60;;;;;;8495041;27;19960;-50
2023/07/22 21:58:50;;;;;;;;;;;24.00;61.70;;;;;;8510640;27;19964;-50
2023/07/22 22:02:51;;;;;;;;;;;23.90;61.70;;;;;;8494704;28;20265;-51
2023/07/22 22:06:52;;;;;;;;;;;23.90;61.70;;;;;;8495510;28;19912;-49
2023/07/22 22:10:53;;;;;;;;;;;23.90;61.60;;;;;;8494877;28;19918;-49
2023/07/22 22:14:54;;;;;;;;;;;23.90;61.60;;;;;;8494024;28;19930;-51
2023/07/22 22:18:55;;;;;;;;;;;23.90;61.60;;;;;;8494620;28;19976;-50
2023/07/22 22:22:55;;;;;;;;;;;23.90;61.60;;;;;;8494697;28;19912;-49
2023/07/22 22:26:56;;;;;;;;;;;24.00;61.70;;;;;;8494532;27;19973;-51
2023/07/22 22:30:59;;;;;;;;;;;23.90;61.60;;;;;;8494217;28;19964;-50
2023/07/22 22:35:00;;;;;;;;;;;23.90;61.60;;;;;;8494307;28;19947;-51
2023/07/22 22:39:00;;;;;;;;;;;23.90;61.60;;;;;;8494151;28;19918;-50
2023/07/22 22:43:01;;;;;;;;;;;23.90;61.60;;;;;;8494194;28;19918;-51
2023/07/22 22:47:02;;;;;;;;;;;23.90;61.60;;;;;;8494009;28;19914;-50
2023/07/22 22:51:03;;;;;;;;;;;23.90;61.60;;;;;;8493722;28;20207;-51
2023/07/22 22:55:03;;;;;;;;;;;23.90;61.60;;;;;;8494486;27;20284;-49
2023/07/22 22:59:09;;;;;;;;;;;23.90;61.60;;;;;;8494086;28;19994;-49
2023/07/22 23:03:09;;;;;;;;;;;23.90;61.60;;;;;;8496548;27;20415;-51
2023/07/22 23:07:10;;;;;;;;;;;23.90;61.60;;;;;;8499569;27;20335;-51
2023/07/22 23:11:15;;;;;;;;;;;23.90;61.70;;;;;;8481353;27;19911;-51
2023/07/22 23:15:16;;;;;;;;;;;23.90;61.80;;;;;;8499416;27;19927;-49
2023/07/22 23:19:17;;;;;;;;;;;23.90;61.70;;;;;;8499529;27;20002;-48